Time;durP1;ratioP1;P1;durP2;ratioP2;P2;SDS_P1;SDS_P2;PMS_P1;PMS_P2;Temp;Humidity;BMP_temperature;BMP_pressure;BME280_temperature;BME280_humidity;BME280_pressure;Samples;Min_cycle;Max_cycle;Signal;HPM_P1;HPM_P2
2023/03/28 00:01:50;;;;;;;5.07;1.08;;;4.60;94.10;;;;;;5026027;28;20524;-69
2023/03/28 00:04:16;;;;;;;1.98;0.90;;;4.30;94.40;;;;;;5024506;28;20034;-69
2023/03/28 00:06:44;;;;;;;0.88;0.85;;;4.20;94.40;;;;;;5020823;28;20078;-68
2023/03/28 00:09:11;;;;;;;1.23;0.70;;;4.00;95.10;;;;;;5023756;28;20037;-68
2023/03/28 00:11:36;;;;;;;0.60;0.60;;;3.80;95.50;;;;;;5026977;28;20450;-68
2023/03/28 00:14:02;;;;;;;0.90;0.77;;;3.80;95.30;;;;;;5019142;28;20030;-69
2023/03/28 00:16:30;;;;;;;1.48;0.98;;;3.80;95.60;;;;;;5032989;28;20033;-69
2023/03/28 00:18:59;;;;;;;1.92;1.02;;;3.70;95.40;;;;;;5029898;28;20065;-70
2023/03/28 00:21:30;;;;;;;1.95;0.95;;;3.60;96.10;;;;;;5018437;28;20069;-69
2023/03/28 00:24:01;;;;;;;0.77;0.77;;;3.50;95.80;;;;;;5013882;28;20078;-69
2023/03/28 00:26:28;;;;;;;1.08;0.88;;;3.60;95.90;;;;;;5013708;28;20168;-69
2023/03/28 00:28:55;;;;;;;2.05;0.90;;;3.50;95.80;;;;;;5013852;28;20556;-69
2023/03/28 00:31:22;;;;;;;1.13;0.80;;;3.50;95.50;;;;;;5015827;28;20447;-69
2023/03/28 00:33:48;;;;;;;1.25;1.00;;;3.60;95.50;;;;;;5016308;28;20041;-69
2023/03/28 00:36:17;;;;;;;0.60;0.60;;;3.50;95.70;;;;;;5032973;28;20025;-69
2023/03/28 00:38:44;;;;;;;2.63;0.95;;;3.50;95.70;;;;;;5022856;28;20036;-69
2023/03/28 00:41:10;;;;;;;0.70;0.70;;;3.50;95.60;;;;;;5012560;28;20049;-69
2023/03/28 00:43:44;;;;;;;1.25;1.00;;;3.50;95.90;;;;;;5012167;28;20506;-69
2023/03/28 00:46:38;;;;;;;2.20;1.35;;;3.60;95.80;;;;;;5013311;28;20482;-69
2023/03/28 00:49:21;;;;;;;3.72;1.42;;;3.50;96.00;;;;;;5024173;28;20034;-69
2023/03/28 00:51:56;;;;;;;1.88;1.00;;;3.50;96.00;;;;;;5029817;28;20471;-69
2023/03/28 00:54:26;;;;;;;3.22;0.95;;;3.50;96.00;;;;;;5017262;28;20125;-69
2023/03/28 00:56:54;;;;;;;2.85;0.88;;;3.50;96.30;;;;;;5013302;28;20040;-69
2023/03/28 00:59:23;;;;;;;2.85;1.15;;;3.50;96.10;;;;;;5012429;28;20046;-68
2023/03/28 01:01:49;;;;;;;2.03;1.10;;;3.50;96.30;;;;;;5011942;28;20034;-69
2023/03/28 01:04:19;;;;;;;2.30;1.00;;;3.60;96.10;;;;;;5015762;28;20030;-69
2023/03/28 01:06:49;;;;;;;2.08;1.00;;;3.60;96.00;;;;;;5015759;28;20080;-69
2023/03/28 01:09:17;;;;;;;2.42;0.98;;;3.60;95.90;;;;;;5018802;28;20033;-67
2023/03/28 01:11:44;;;;;;;1.05;0.90;;;3.60;96.10;;;;;;5016539;28;20033;-68
2023/03/28 01:14:14;;;;;;;4.47;1.23;;;3.50;95.90;;;;;;5027296;28;20030;-67
2023/03/28 01:16:40;;;;;;;2.22;1.00;;;3.50;95.80;;;;;;5030522;28;20395;-68
2023/03/28 01:19:35;;;;;;;1.67;0.93;;;3.60;95.80;;;;;;5011862;28;20033;-68
2023/03/28 01:22:35;;;;;;;1.65;0.80;;;3.60;95.80;;;;;;5011830;28;20507;-69
2023/03/28 01:25:14;;;;;;;1.90;1.08;;;3.60;95.70;;;;;;5011833;28;20034;-68
2023/03/28 01:28:01;;;;;;;1.90;1.00;;;3.60;95.80;;;;;;5012879;28;20025;-69
2023/03/28 01:30:44;;;;;;;2.83;1.10;;;3.60;95.90;;;;;;5012751;28;20073;-69
2023/03/28 01:33:30;;;;;;;4.57;1.45;;;3.60;95.70;;;;;;5026210;28;20732;-69
2023/03/28 01:36:17;;;;;;;4.05;0.93;;;3.60;95.60;;;;;;5015704;28;20026;-70
2023/03/28 01:39:08;;;;;;;2.40;1.00;;;3.60;95.60;;;;;;5016424;28;20037;-70
2023/03/28 01:42:00;;;;;;;2.33;1.23;;;3.60;95.60;;;;;;5027737;28;20097;-69
2023/03/28 01:44:55;;;;;;;2.17;1.00;;;3.60;95.60;;;;;;5011798;28;20088;-69
2023/03/28 01:47:36;;;;;;;4.38;1.10;;;3.70;95.70;;;;;;5023928;28;20033;-69
2023/03/28 01:50:09;;;;;;;3.05;0.82;;;3.70;95.70;;;;;;5028232;28;20033;-69
2023/03/28 01:52:53;;;;;;;4.22;1.80;;;3.70;95.80;;;;;;5030773;28;20025;-70
2023/03/28 01:55:56;;;;;;;3.07;1.13;;;3.80;95.90;;;;;;5014177;28;20042;-70
2023/03/28 01:58:48;;;;;;;2.60;1.17;;;3.80;95.90;;;;;;5011333;28;20044;-70
2023/03/28 02:01:21;;;;;;;2.80;1.50;;;3.90;95.90;;;;;;5021054;28;20052;-70
2023/03/28 02:04:01;;;;;;;3.97;1.40;;;3.90;96.00;;;;;;5021644;28;20046;-71
2023/03/28 02:06:29;;;;;;;2.88;1.00;;;3.90;96.30;;;;;;5026458;28;20038;-69
2023/03/28 02:08:56;;;;;;;3.90;1.60;;;3.90;96.30;;;;;;5015744;28;20030;-69
2023/03/28 02:11:25;;;;;;;2.22;1.27;;;3.90;96.40;;;;;;5011727;28;20458;-70
2023/03/28 02:14:00;;;;;;;4.05;1.85;;;3.90;96.90;;;;;;5017826;28;20030;-69
2023/03/28 02:16:26;;;;;;;3.40;1.20;;;3.80;96.60;;;;;;5017637;28;20037;-69
2023/03/28 02:18:55;;;;;;;2.15;1.52;;;3.70;96.60;;;;;;5015782;28;20433;-69
2023/03/28 02:21:35;;;;;;;4.70;1.60;;;3.70;96.90;;;;;;5034051;28;20303;-69
2023/03/28 02:24:01;;;;;;;3.15;1.40;;;3.70;96.80;;;;;;5027258;28;20036;-69
2023/03/28 02:26:26;;;;;;;5.00;1.50;;;3.70;96.70;;;;;;5030602;28;20034;-70
2023/03/28 02:28:55;;;;;;;3.80;1.70;;;3.70;96.80;;;;;;5026751;28;20032;-69
2023/03/28 02:31:22;;;;;;;7.65;1.40;;;3.70;96.70;;;;;;5019344;28;20033;-70
2023/03/28 02:33:50;;;;;;;4.15;1.42;;;3.80;96.70;;;;;;5024634;28;20037;-69
2023/03/28 02:36:50;;;;;;;3.80;1.23;;;3.80;96.70;;;;;;5018982;28;20033;-69
2023/03/28 02:39:28;;;;;;;3.30;1.17;;;3.80;96.90;;;;;;5020747;28;20038;-69
2023/03/28 02:42:13;;;;;;;2.13;1.30;;;3.70;97.10;;;;;;5015198;28;20445;-70
2023/03/28 02:44:46;;;;;;;;;;;3.70;96.90;;;;;;5023417;28;20428;-70
2023/03/28 02:47:38;;;;;;;6.68;1.50;;;3.70;97.10;;;;;;5029526;28;20329;-70
2023/03/28 02:50:24;;;;;;;6.88;1.80;;;3.70;96.90;;;;;;5013705;28;20042;-70
2023/03/28 02:53:08;;;;;;;3.50;1.45;;;3.60;96.90;;;;;;5014973;28;20591;-69
2023/03/28 02:55:49;;;;;;;2.80;1.30;;;3.60;96.90;;;;;;5011363;28;20101;-70
2023/03/28 02:58:23;;;;;;;1.77;1.40;;;3.60;96.90;;;;;;5043421;28;20287;-70
2023/03/28 03:00:50;;;;;;;4.10;1.58;;;3.50;96.80;;;;;;5030301;28;20489;-70
2023/03/28 03:03:16;;;;;;;2.70;1.55;;;3.60;96.70;;;;;;5031587;28;20155;-69
2023/03/28 03:05:42;;;;;;;3.88;1.70;;;3.60;96.60;;;;;;5020264;28;20049;-69
2023/03/28 03:08:08;;;;;;;2.67;1.50;;;3.60;96.40;;;;;;5019422;28;20033;-69
2023/03/28 03:10:33;;;;;;;2.67;1.27;;;3.60;96.40;;;;;;5026458;28;20017;-69
2023/03/28 03:12:59;;;;;;;3.28;1.50;;;3.60;96.40;;;;;;5024903;28;20030;-69
2023/03/28 03:15:29;;;;;;;2.65;1.33;;;3.70;96.40;;;;;;5033009;28;20021;-69
2023/03/28 03:17:57;;;;;;;4.25;1.25;;;3.70;96.20;;;;;;5014615;28;20107;-69
2023/03/28 03:20:25;;;;;;;2.83;1.90;;;3.70;96.20;;;;;;5014154;28;20401;-69
2023/03/28 03:22:51;;;;;;;1.75;1.23;;;3.70;96.20;;;;;;5014575;28;20111;-69
2023/03/28 03:25:17;;;;;;;3.67;1.55;;;3.70;96.10;;;;;;5031495;28;20030;-69
2023/03/28 03:27:43;;;;;;;1.90;1.15;;;3.80;96.10;;;;;;5023840;28;20074;-68
2023/03/28 03:30:09;;;;;;;3.97;1.60;;;3.80;96.10;;;;;;5019607;28;20430;-69
2023/03/28 03:32:35;;;;;;;3.13;1.20;;;3.80;96.00;;;;;;5024667;28;20560;-69
2023/03/28 03:35:01;;;;;;;4.00;2.00;;;3.80;96.00;;;;;;5033805;28;20164;-67
2023/03/28 03:37:26;;;;;;;5.15;1.30;;;3.70;96.00;;;;;;5014880;28;20157;-65
2023/03/28 03:39:52;;;;;;;2.42;1.60;;;3.80;96.00;;;;;;5015954;28;20022;-69
2023/03/28 03:42:18;;;;;;;1.95;1.50;;;3.80;95.90;;;;;;5014269;28;20478;-68
2023/03/28 03:44:43;;;;;;;3.95;1.60;;;3.80;96.00;;;;;;5024634;28;20013;-67
2023/03/28 03:47:09;;;;;;;3.17;1.70;;;3.70;96.10;;;;;;5021467;28;20420;-67
2023/03/28 03:49:35;;;;;;;4.15;2.00;;;3.70;96.10;;;;;;5018800;28;20114;-68
2023/03/28 03:52:00;;;;;;;3.88;1.40;;;3.60;96.50;;;;;;5014346;28;20471;-68
2023/03/28 03:54:26;;;;;;;3.63;2.00;;;3.50;96.60;;;;;;5020623;28;20034;-67
2023/03/28 03:56:51;;;;;;;4.10;1.55;;;3.60;96.50;;;;;;5013418;28;20489;-67
2023/03/28 03:59:17;;;;;;;2.80;1.20;;;3.60;96.70;;;;;;5013966;28;20180;-66
2023/03/28 04:01:43;;;;;;;3.10;1.80;;;3.50;96.50;;;;;;5014273;28;20129;-66
2023/03/28 04:04:09;;;;;;;2.38;1.30;;;3.50;96.40;;;;;;5023030;28;20120;-66
2023/03/28 04:06:37;;;;;;;4.50;2.00;;;3.50;96.40;;;;;;5027064;28;20295;-67
2023/03/28 04:09:03;;;;;;;6.57;1.83;;;3.50;96.50;;;;;;5023135;28;20417;-66
2023/03/28 04:11:29;;;;;;;3.85;1.77;;;3.50;96.70;;;;;;5013890;28;20026;-67
2023/03/28 04:13:54;;;;;;;3.45;1.60;;;3.50;96.60;;;;;;5027844;28;20079;-67
2023/03/28 04:16:20;;;;;;;6.80;2.22;;;3.50;96.70;;;;;;5028052;28;20029;-67
2023/03/28 04:18:49;;;;;;;4.85;2.10;;;3.50;96.60;;;;;;5013202;28;20755;-67
2023/03/28 04:21:16;;;;;;;6.03;1.83;;;3.40;97.00;;;;;;5025760;28;20037;-67
2023/03/28 04:23:42;;;;;;;4.45;1.90;;;3.40;97.00;;;;;;5013135;28;20061;-67
2023/03/28 04:26:08;;;;;;;3.72;1.60;;;3.40;97.00;;;;;;5013506;28;20061;-67
2023/03/28 04:28:34;;;;;;;2.78;1.40;;;3.40;96.90;;;;;;5013225;28;20058;-67
2023/03/28 04:31:01;;;;;;;4.95;2.22;;;3.40;96.80;;;;;;5012382;28;20040;-67
2023/03/28 04:33:32;;;;;;;2.90;1.40;;;3.40;96.80;;;;;;5015167;28;20026;-67
2023/03/28 04:36:00;;;;;;;4.28;1.70;;;3.40;96.80;;;;;;5012947;28;20052;-68
2023/03/28 04:38:27;;;;;;;4.05;1.70;;;3.40;97.00;;;;;;5013418;28;20022;-65
2023/03/28 04:40:56;;;;;;;4.57;1.50;;;3.40;96.70;;;;;;5013346;28;20033;-65
2023/03/28 04:43:30;;;;;;;7.10;2.00;;;3.40;96.70;;;;;;5013985;28;20062;-65
2023/03/28 04:45:56;;;;;;;6.88;1.95;;;3.40;96.70;;;;;;5030548;28;20037;-66
2023/03/28 04:48:24;;;;;;;2.95;2.03;;;3.40;96.70;;;;;;5023217;28;20034;-65
2023/03/28 04:50:50;;;;;;;3.80;1.70;;;3.30;96.80;;;;;;5030636;28;20042;-66
2023/03/28 04:53:16;;;;;;;4.93;2.30;;;3.30;96.80;;;;;;5024006;28;20029;-66
2023/03/28 04:55:47;;;;;;;5.30;1.55;;;3.30;96.80;;;;;;5012894;28;20026;-66
2023/03/28 04:58:13;;;;;;;2.95;1.63;;;3.30;96.80;;;;;;5020341;28;20033;-65
2023/03/28 05:00:39;;;;;;;3.65;1.70;;;3.40;96.90;;;;;;5015949;28;20050;-65
2023/03/28 05:03:13;;;;;;;3.08;1.33;;;3.40;97.00;;;;;;5022131;28;20034;-65
2023/03/28 05:05:40;;;;;;;5.30;1.70;;;3.40;96.90;;;;;;5017125;28;20029;-66
2023/03/28 05:08:06;;;;;;;3.47;1.45;;;3.50;96.90;;;;;;5015719;28;20033;-64
2023/03/28 05:10:31;;;;;;;3.55;1.50;;;3.50;96.80;;;;;;5013855;28;20026;-65
2023/03/28 05:12:57;;;;;;;2.60;1.52;;;3.50;96.70;;;;;;5014523;28;20049;-65
2023/03/28 05:15:24;;;;;;;2.60;1.30;;;3.40;96.70;;;;;;5013741;28;20101;-66
2023/03/28 05:17:49;;;;;;;3.13;1.60;;;3.40;96.70;;;;;;5031186;28;20033;-65
2023/03/28 05:20:17;;;;;;;2.17;1.30;;;3.40;96.80;;;;;;5029457;28;20034;-67
2023/03/28 05:22:43;;;;;;;3.35;1.60;;;3.40;96.80;;;;;;5030776;28;20110;-66
2023/03/28 05:25:10;;;;;;;5.65;2.03;;;3.50;96.90;;;;;;5028474;28;20033;-65
2023/03/28 05:27:37;;;;;;;2.30;1.45;;;3.50;97.00;;;;;;5026846;28;20107;-66
2023/03/28 05:30:05;;;;;;;3.20;1.38;;;3.50;96.90;;;;;;5014641;28;20065;-64
2023/03/28 05:32:31;;;;;;;3.53;1.60;;;3.60;96.90;;;;;;5022900;28;20037;-65
2023/03/28 05:34:56;;;;;;;3.20;1.55;;;3.70;96.80;;;;;;5028276;28;20101;-64
2023/03/28 05:37:22;;;;;;;4.00;1.77;;;3.70;96.70;;;;;;5031505;28;20136;-65
2023/03/28 05:39:47;;;;;;;1.63;1.20;;;3.60;96.70;;;;;;5029370;28;20025;-64
2023/03/28 05:42:13;;;;;;;8.32;2.75;;;3.60;96.70;;;;;;5026271;28;20041;-64
2023/03/28 05:44:39;;;;;;;3.75;1.85;;;3.60;96.60;;;;;;5016962;28;20022;-64
2023/03/28 05:47:04;;;;;;;7.10;1.67;;;3.60;96.60;;;;;;5013434;28;20325;-64
2023/03/28 05:49:30;;;;;;;5.57;2.10;;;3.60;96.40;;;;;;5013333;28;20036;-64
2023/03/28 05:51:55;;;;;;;4.30;1.90;;;3.50;96.40;;;;;;5032047;28;20025;-64
2023/03/28 05:54:21;;;;;;;3.45;1.63;;;3.50;96.40;;;;;;5019300;28;20440;-64
2023/03/28 05:56:47;;;;;;;3.05;1.60;;;3.50;96.20;;;;;;5011930;28;20030;-64
2023/03/28 05:59:12;;;;;;;3.05;1.88;;;3.50;96.30;;;;;;5011683;28;20490;-64
2023/03/28 06:01:38;;;;;;;2.40;1.42;;;3.50;96.20;;;;;;5022447;28;20044;-64
2023/03/28 06:04:04;;;;;;;5.07;2.10;;;3.50;96.20;;;;;;5016352;28;20105;-64
2023/03/28 06:06:31;;;;;;;3.50;1.58;;;3.50;96.20;;;;;;5018183;28;20036;-64
2023/03/28 06:08:58;;;;;;;2.70;1.73;;;3.50;96.10;;;;;;5021993;28;20410;-65
2023/03/28 06:11:23;;;;;;;2.63;1.52;;;3.50;96.10;;;;;;5017606;28;20025;-64
2023/03/28 06:13:49;;;;;;;3.38;1.70;;;3.50;96.10;;;;;;5020885;28;20035;-64
2023/03/28 06:16:15;;;;;;;2.78;1.80;;;3.60;96.10;;;;;;5015986;28;20029;-63
2023/03/28 06:18:40;;;;;;;2.90;1.35;;;3.60;96.10;;;;;;5026848;28;20029;-64
2023/03/28 06:21:06;;;;;;;3.25;2.00;;;3.60;96.10;;;;;;5012517;28;20489;-63
2023/03/28 06:23:32;;;;;;;3.05;1.60;;;3.70;96.10;;;;;;5022407;28;20034;-63
2023/03/28 06:25:57;;;;;;;3.65;1.75;;;3.60;96.10;;;;;;5016536;28;20488;-65
2023/03/28 06:28:23;;;;;;;2.88;1.60;;;3.70;96.10;;;;;;5027113;28;20164;-65
2023/03/28 06:30:49;;;;;;;4.43;1.70;;;3.80;96.10;;;;;;5027306;28;20477;-65
2023/03/28 06:33:15;;;;;;;5.28;1.85;;;3.70;96.00;;;;;;5016568;28;20512;-64
2023/03/28 06:35:41;;;;;;;3.03;1.80;;;3.70;96.00;;;;;;5029884;28;20026;-64
2023/03/28 06:38:07;;;;;;;4.85;1.75;;;3.70;96.00;;;;;;5016895;28;20034;-64
2023/03/28 06:40:32;;;;;;;4.85;1.83;;;3.70;96.10;;;;;;5015690;28;20390;-64
2023/03/28 06:42:58;;;;;;;5.13;1.67;;;3.70;96.00;;;;;;5019334;28;20107;-65
2023/03/28 06:45:24;;;;;;;6.10;2.35;;;3.80;96.00;;;;;;5017337;28;20083;-65
2023/03/28 06:47:50;;;;;;;5.57;1.58;;;3.80;96.00;;;;;;5019036;28;20156;-65
2023/03/28 06:50:16;;;;;;;2.70;1.63;;;3.80;95.80;;;;;;5032244;28;20116;-65
2023/03/28 06:52:42;;;;;;;3.83;1.70;;;3.80;95.80;;;;;;5032073;28;20481;-65
2023/03/28 06:55:08;;;;;;;5.63;2.50;;;3.80;95.80;;;;;;5016956;28;20034;-66
2023/03/28 06:57:34;;;;;;;2.63;1.77;;;3.80;95.80;;;;;;5027378;28;20034;-65
2023/03/28 06:59:59;;;;;;;6.75;2.13;;;3.90;95.70;;;;;;5029510;28;20045;-64
2023/03/28 07:02:25;;;;;;;4.30;1.67;;;3.90;95.70;;;;;;5035950;28;20182;-65
2023/03/28 07:04:51;;;;;;;3.45;1.80;;;4.00;95.60;;;;;;5022715;28;20685;-66
2023/03/28 07:07:16;;;;;;;4.30;1.80;;;4.10;95.60;;;;;;5015423;28;20022;-66
2023/03/28 07:09:42;;;;;;;3.72;1.67;;;4.10;95.60;;;;;;5013880;28;20022;-67
2023/03/28 07:12:08;;;;;;;4.50;2.05;;;4.20;95.30;;;;;;5015651;28;20022;-67
2023/03/28 07:14:34;;;;;;;4.40;2.38;;;4.20;95.20;;;;;;5025777;28;20037;-67
2023/03/28 07:17:00;;;;;;;3.40;1.60;;;4.20;95.10;;;;;;5014942;28;20033;-67
2023/03/28 07:19:25;;;;;;;3.97;1.70;;;4.20;94.90;;;;;;5020043;28;20022;-68
2023/03/28 07:21:51;;;;;;;3.97;2.03;;;4.20;95.00;;;;;;5014572;28;20560;-67
2023/03/28 07:24:18;;;;;;;4.00;1.90;;;4.30;94.90;;;;;;5029494;28;20055;-67
2023/03/28 07:26:44;;;;;;;5.55;1.75;;;4.30;94.80;;;;;;5020925;28;20075;-67
2023/03/28 07:29:09;;;;;;;2.50;1.60;;;4.30;94.60;;;;;;5024920;28;20501;-67
2023/03/28 07:31:35;;;;;;;4.30;1.75;;;4.40;94.80;;;;;;5040000;28;20025;-67
2023/03/28 07:34:01;;;;;;;2.53;1.48;;;4.40;94.50;;;;;;5020779;28;20034;-67
2023/03/28 07:36:28;;;;;;;3.97;1.70;;;4.50;94.60;;;;;;5019527;28;20056;-67
2023/03/28 07:38:53;;;;;;;4.15;2.20;;;4.50;94.50;;;;;;5034668;28;20025;-67
2023/03/28 07:41:21;;;;;;;3.35;1.90;;;4.50;94.10;;;;;;5037302;28;20041;-67
2023/03/28 07:43:47;;;;;;;2.03;1.27;;;4.60;94.30;;;;;;5033280;28;20124;-67
2023/03/28 07:46:13;;;;;;;2.78;1.50;;;4.60;94.20;;;;;;5027433;28;20461;-67
2023/03/28 07:48:40;;;;;;;4.28;1.70;;;4.60;93.80;;;;;;5024708;28;20113;-67
2023/03/28 07:51:06;;;;;;;5.82;2.00;;;4.60;93.50;;;;;;5017134;28;20033;-67
2023/03/28 07:53:33;;;;;;;4.20;1.80;;;4.60;93.60;;;;;;5018654;28;20030;-67
2023/03/28 07:55:59;;;;;;;3.58;1.80;;;4.70;93.70;;;;;;5015082;28;20496;-67
2023/03/28 07:58:24;;;;;;;6.55;2.25;;;4.70;93.80;;;;;;5019355;28;20025;-67
2023/03/28 08:00:50;;;;;;;3.63;2.05;;;4.80;93.80;;;;;;5031272;28;20481;-67
2023/03/28 08:03:16;;;;;;;3.97;1.65;;;4.80;93.20;;;;;;5024977;28;20032;-67
2023/03/28 08:05:50;;;;;;;3.17;1.88;;;4.90;93.40;;;;;;5016101;28;20037;-67
2023/03/28 08:08:16;;;;;;;7.03;1.77;;;5.00;93.10;;;;;;5030231;28;20026;-67
2023/03/28 08:10:44;;;;;;;5.10;2.17;;;5.00;92.80;;;;;;5026552;28;20424;-67
2023/03/28 08:13:10;;;;;;;3.67;1.70;;;5.10;92.60;;;;;;5037877;28;20112;-67
2023/03/28 08:15:36;;;;;;;3.40;1.50;;;5.10;92.70;;;;;;5025045;28;20105;-67
2023/03/28 08:18:01;;;;;;;4.18;1.77;;;5.10;91.90;;;;;;5017656;28;20037;-68
2023/03/28 08:20:27;;;;;;;5.45;1.73;;;5.20;92.20;;;;;;5026049;28;20322;-67
2023/03/28 08:22:52;;;;;;;3.65;1.70;;;5.20;91.10;;;;;;5013024;28;20033;-67
2023/03/28 08:25:18;;;;;;;4.38;1.70;;;5.20;91.20;;;;;;5020350;28;20478;-67
2023/03/28 08:27:44;;;;;;;3.78;1.60;;;5.30;91.20;;;;;;5020991;28;20120;-67
2023/03/28 08:30:10;;;;;;;5.32;1.90;;;5.30;91.10;;;;;;5029447;28;20022;-67
2023/03/28 08:32:35;;;;;;;3.85;1.25;;;5.30;90.40;;;;;;5012905;28;20038;-67
2023/03/28 08:35:01;;;;;;;3.60;1.50;;;5.30;90.20;;;;;;5014764;28;20034;-67
2023/03/28 08:37:28;;;;;;;1.80;1.20;;;5.30;90.10;;;;;;5022898;28;20079;-67
2023/03/28 08:39:54;;;;;;;4.47;1.30;;;5.30;88.10;;;;;;5021779;28;20029;-67
2023/03/28 08:42:23;;;;;;;3.00;1.50;;;5.40;87.90;;;;;;5013174;28;20076;-67
2023/03/28 08:45:00;;;;;;;3.35;1.58;;;5.40;89.10;;;;;;5017184;28;20046;-68
2023/03/28 08:47:31;;;;;;;2.30;1.27;;;5.50;89.50;;;;;;5027981;28;20022;-68
2023/03/28 08:50:05;;;;;;;2.55;1.63;;;5.60;89.70;;;;;;5031462;28;20032;-67
2023/03/28 08:52:31;;;;;;;2.38;1.35;;;5.70;88.90;;;;;;5024184;28;20033;-68
2023/03/28 08:55:01;;;;;;;5.13;1.40;;;5.80;87.90;;;;;;5020882;28;20417;-68
2023/03/28 08:57:29;;;;;;;3.55;1.40;;;5.80;85.90;;;;;;5026158;28;20030;-67
2023/03/28 09:00:26;;;;;;;2.47;1.40;;;5.80;85.90;;;;;;5013599;28;20137;-67
2023/03/28 09:02:53;;;;;;;2.65;1.10;;;5.90;83.70;;;;;;5027096;28;20080;-67
2023/03/28 09:05:45;;;;;;;1.38;1.27;;;5.80;81.40;;;;;;5021194;28;20385;-68
2023/03/28 09:08:40;;;;;;;4.72;1.10;;;5.80;82.40;;;;;;5029992;28;20171;-68
2023/03/28 09:11:25;;;;;;;2.60;1.40;;;5.80;84.80;;;;;;5027891;28;20030;-68
2023/03/28 09:14:09;;;;;;;2.70;1.40;;;5.80;83.30;;;;;;5027339;28;20528;-68
2023/03/28 09:16:55;;;;;;;1.23;0.90;;;5.70;79.90;;;;;;5023952;28;20032;-69
2023/03/28 09:19:29;;;;;;;2.20;1.13;;;5.80;81.10;;;;;;5016518;28;20077;-65
2023/03/28 09:22:09;;;;;;;1.92;1.10;;;5.80;81.50;;;;;;5025348;28;20513;-65
2023/03/28 09:24:50;;;;;;;2.65;1.13;;;5.90;81.60;;;;;;5019907;28;20030;-65
2023/03/28 09:27:24;;;;;;;1.63;1.17;;;6.00;81.90;;;;;;5013121;28;20033;-66
2023/03/28 09:29:55;;;;;;;1.83;1.05;;;6.10;81.10;;;;;;5018607;28;20022;-65
2023/03/28 09:32:29;;;;;;;1.63;0.80;;;6.20;79.60;;;;;;5024564;28;20037;-66
2023/03/28 09:34:55;;;;;;;2.03;1.13;;;6.40;80.50;;;;;;5018647;28;20053;-66
2023/03/28 09:37:36;;;;;;;2.92;1.50;;;6.40;78.40;;;;;;5018430;28;20038;-65
2023/03/28 09:40:22;;;;;;;2.28;1.50;;;6.50;79.60;;;;;;5012153;28;20080;-66
2023/03/28 09:43:19;;;;;;;2.03;1.42;;;6.70;80.10;;;;;;5012307;28;20088;-66
2023/03/28 09:45:59;;;;;;;1.85;1.25;;;6.70;77.90;;;;;;5011867;28;20033;-66
2023/03/28 09:48:32;;;;;;;1.70;1.23;;;6.80;78.80;;;;;;5012064;28;20041;-66
2023/03/28 09:50:58;;;;;;;3.22;1.60;;;6.90;77.60;;;;;;5022959;28;20034;-67
2023/03/28 09:53:29;;;;;;;1.90;1.23;;;7.00;77.10;;;;;;5012376;28;20025;-66
2023/03/28 09:56:10;;;;;;;3.20;1.48;;;7.10;77.70;;;;;;5029606;28;20125;-65
2023/03/28 09:58:57;;;;;;;1.98;1.30;;;7.10;76.90;;;;;;5017004;28;20364;-66
2023/03/28 10:01:44;;;;;;;5.72;1.40;;;7.20;76.60;;;;;;5014082;28;20045;-67
2023/03/28 10:04:26;;;;;;;1.67;0.95;;;7.30;74.60;;;;;;5031006;28;20029;-66
2023/03/28 10:06:53;;;;;;;1.45;1.02;;;7.30;75.30;;;;;;5017972;28;20036;-66
2023/03/28 10:09:21;;;;;;;2.63;1.20;;;7.30;73.90;;;;;;5025529;28;20382;-66
2023/03/28 10:11:58;;;;;;;2.97;1.40;;;7.30;73.30;;;;;;5032200;28;20104;-66
2023/03/28 10:14:46;;;;;;;1.45;1.10;;;7.30;74.50;;;;;;5016562;28;20026;-66
2023/03/28 10:17:22;;;;;;;2.28;1.15;;;7.30;72.40;;;;;;5029936;28;20033;-66
2023/03/28 10:19:48;;;;;;;4.22;1.30;;;7.20;73.50;;;;;;5017782;28;20061;-66
2023/03/28 10:22:21;;;;;;;4.20;1.50;;;7.40;74.60;;;;;;5027456;28;20085;-66
2023/03/28 10:24:47;;;;;;;2.58;1.08;;;7.30;72.20;;;;;;5036383;28;20021;-66
2023/03/28 10:27:30;;;;;;;2.55;1.20;;;7.30;72.70;;;;;;5028012;28;20054;-66
2023/03/28 10:30:06;;;;;;;2.28;1.40;;;7.40;73.60;;;;;;5017056;28;20038;-66
2023/03/28 10:32:32;;;;;;;3.38;1.48;;;7.40;73.90;;;;;;5020484;28;20096;-66
2023/03/28 10:35:15;;;;;;;2.20;1.15;;;7.50;75.20;;;;;;5015847;28;20490;-65
2023/03/28 10:37:41;;;;;;;2.35;1.52;;;7.60;73.60;;;;;;5020870;28;20037;-66
2023/03/28 10:40:22;;;;;;;2.35;1.50;;;7.60;73.20;;;;;;5020940;28;20111;-66
2023/03/28 10:42:51;;;;;;;3.80;1.58;;;7.70;73.30;;;;;;5021221;28;20026;-66
2023/03/28 10:45:35;;;;;;;3.10;1.30;;;7.70;72.10;;;;;;5032849;28;20464;-66
2023/03/28 10:48:20;;;;;;;1.40;0.80;;;7.70;72.60;;;;;;5026804;28;20370;-65
2023/03/28 10:50:52;;;;;;;1.95;0.98;;;7.70;72.30;;;;;;5033972;28;20029;-66
2023/03/28 10:53:31;;;;;;;4.43;1.58;;;7.80;71.30;;;;;;5018730;28;20208;-66
2023/03/28 10:56:03;;;;;;;2.17;1.10;;;7.80;71.80;;;;;;5022639;28;20532;-66
2023/03/28 10:58:44;;;;;;;1.92;1.10;;;7.80;71.50;;;;;;5012984;28;20457;-66
2023/03/28 11:01:19;;;;;;;1.48;1.00;;;7.90;71.10;;;;;;5021951;28;20103;-66
2023/03/28 11:04:07;;;;;;;2.38;1.30;;;8.10;71.80;;;;;;5011674;28;20137;-67
2023/03/28 11:06:43;;;;;;;3.92;1.58;;;8.20;70.00;;;;;;5030013;28;20014;-66
2023/03/28 11:09:21;;;;;;;1.33;1.05;;;8.20;70.20;;;;;;5020775;28;20029;-66
2023/03/28 11:11:46;;;;;;;1.75;0.90;;;8.30;69.80;;;;;;5011646;28;20221;-66
2023/03/28 11:14:40;;;;;;;1.50;1.02;;;8.30;69.60;;;;;;5006035;28;20504;-66
2023/03/28 11:17:27;;;;;;;3.42;1.58;;;8.40;70.10;;;;;;5026156;28;20458;-66
2023/03/28 11:19:56;;;;;;;2.40;1.60;;;8.40;69.90;;;;;;5028128;28;20067;-66
2023/03/28 11:22:40;;;;;;;3.35;1.33;;;8.20;68.40;;;;;;5034720;28;20030;-66
2023/03/28 11:25:33;;;;;;;3.72;1.50;;;8.10;68.50;;;;;;5021390;28;20366;-66
2023/03/28 11:27:58;;;;;;;2.50;1.23;;;8.20;68.20;;;;;;5031814;28;20044;-65
2023/03/28 11:30:31;;;;;;;1.52;1.13;;;8.20;68.60;;;;;;5020983;28;20029;-65
2023/03/28 11:33:13;;;;;;;2.83;0.95;;;8.10;68.10;;;;;;5023282;28;20045;-65
2023/03/28 11:36:02;;;;;;;3.67;1.20;;;8.10;66.40;;;;;;5027311;28;20433;-64
2023/03/28 11:38:38;;;;;;;1.95;1.00;;;8.00;67.10;;;;;;5014378;28;20041;-65
2023/03/28 11:41:16;;;;;;;1.45;1.10;;;8.10;68.00;;;;;;5032759;28;20764;-65
2023/03/28 11:44:04;;;;;;;1.95;1.00;;;8.20;68.20;;;;;;5032798;28;20025;-65
2023/03/28 11:46:34;;;;;;;1.50;1.08;;;8.20;66.20;;;;;;5030594;28;20452;-66
2023/03/28 11:49:16;;;;;;;1.70;1.27;;;8.20;67.20;;;;;;5034034;28;20082;-64
2023/03/28 11:52:09;;;;;;;1.42;1.10;;;8.20;67.80;;;;;;5031270;28;20453;-65
2023/03/28 11:55:07;;;;;;;3.08;1.30;;;8.30;67.30;;;;;;5032607;28;20100;-64
2023/03/28 11:57:49;;;;;;;1.40;1.02;;;8.40;66.20;;;;;;5024595;28;20041;-65
2023/03/28 12:00:30;;;;;;;1.85;1.00;;;8.50;66.20;;;;;;5023820;28;20124;-64
2023/03/28 12:03:20;;;;;;;3.75;1.73;;;8.60;66.90;;;;;;5018525;28;20045;-64
2023/03/28 12:05:51;;;;;;;1.90;1.10;;;8.60;66.20;;;;;;5034890;28;20453;-65
2023/03/28 12:08:24;;;;;;;1.70;1.23;;;8.60;65.40;;;;;;5030061;28;20119;-65
2023/03/28 12:10:57;;;;;;;2.42;1.27;;;8.60;64.10;;;;;;5029373;28;20423;-65
2023/03/28 12:13:32;;;;;;;2.83;1.15;;;8.50;65.10;;;;;;5031901;28;20128;-65
2023/03/28 12:16:06;;;;;;;2.75;1.40;;;8.60;63.50;;;;;;5022189;28;20441;-65
2023/03/28 12:19:09;;;;;;;2.60;1.02;;;8.60;64.30;;;;;;5027970;28;20091;-65
2023/03/28 12:21:53;;;;;;;3.03;1.33;;;8.80;65.20;;;;;;5049059;28;20454;-66
2023/03/28 12:24:28;;;;;;;1.63;0.85;;;8.90;64.80;;;;;;5031043;28;20033;-66
2023/03/28 12:27:03;;;;;;;3.17;1.40;;;9.00;63.90;;;;;;5016400;28;20421;-66
2023/03/28 12:29:52;;;;;;;3.03;1.38;;;9.00;63.80;;;;;;5017980;28;20025;-65
2023/03/28 12:32:33;;;;;;;3.78;1.55;;;9.00;63.70;;;;;;5021298;28;20439;-66
2023/03/28 12:35:16;;;;;;;1.33;0.93;;;9.00;63.80;;;;;;5032350;28;20421;-66
2023/03/28 12:38:07;;;;;;;1.80;1.23;;;9.10;64.50;;;;;;5014108;28;20493;-67
2023/03/28 12:40:50;;;;;;;1.90;1.30;;;9.20;64.20;;;;;;5026301;28;20044;-64
2023/03/28 12:43:26;;;;;;;2.35;1.10;;;9.20;63.40;;;;;;5025203;28;20434;-65
2023/03/28 12:45:59;;;;;;;1.73;1.13;;;9.20;63.40;;;;;;5037791;28;20102;-64
2023/03/28 12:48:30;;;;;;;2.63;1.07;;;9.30;63.70;;;;;;5030093;28;20385;-67
2023/03/28 12:51:00;;;;;;;1.70;0.82;;;9.30;63.90;;;;;;5018616;28;20040;-69
2023/03/28 12:53:30;;;;;;;1.90;1.00;;;9.30;61.60;;;;;;5031663;28;20037;-67
2023/03/28 12:55:55;;;;;;;3.03;1.05;;;9.30;61.70;;;;;;5016231;28;20088;-66
2023/03/28 12:58:26;;;;;;;1.58;1.20;;;9.30;61.20;;;;;;5023533;28;20528;-66
2023/03/28 13:01:07;;;;;;;2.63;1.40;;;9.40;61.10;;;;;;5035536;28;20472;-66
2023/03/28 13:03:50;;;;;;;2.97;1.25;;;9.30;59.20;;;;;;5030908;28;20017;-65
2023/03/28 13:06:32;;;;;;;3.00;1.40;;;9.30;60.10;;;;;;5022607;28;20449;-65
2023/03/28 13:09:37;;;;;;;1.92;1.40;;;9.20;60.10;;;;;;5019166;28;20037;-65
2023/03/28 13:12:30;;;;;;;2.75;1.50;;;9.30;60.70;;;;;;5022736;28;20036;-66
2023/03/28 13:15:13;;;;;;;4.95;1.48;;;9.20;60.90;;;;;;5023415;28;20421;-65
2023/03/28 13:17:46;;;;;;;2.30;1.23;;;9.10;59.40;;;;;;5022864;28;20421;-64
2023/03/28 13:20:14;;;;;;;3.50;1.30;;;9.10;59.60;;;;;;5022144;28;20026;-65
2023/03/28 13:22:56;;;;;;;2.45;1.25;;;9.20;60.00;;;;;;5031508;28;20041;-64
2023/03/28 13:25:24;;;;;;;2.90;0.90;;;9.30;59.80;;;;;;5026682;28;20116;-65